Terminal Aerodrome Forecast
Issued by NWS Cleveland, OH

Home | Current Version | Previous Version | Graphics & Text | Print | Product List | Glossary On
Versions: 1 2 3 4 5 6 7 8 9 10 11 12 13 14 15 16 17 18 19 20 21 22 23 24 25 26
702
FTUS41 KCLE 270534
TAFMFD
TAF
KMFD 270534Z 2706/2806 10005KT 6SM -SHRA BR SCT025 OVC045
      TEMPO 2707/2710 5SM -RA
     FM271000 09006KT 4SM BR SCT007 OVC012
      TEMPO 2712/2715 3SM BR OVC007
     FM271500 05006KT P6SM BKN015
     FM271800 06006KT P6SM BKN045
     FM272100 03005KT P6SM SCT035 BKN120=

USA.gov is the U.S. government's official web portal to all federal, state and local government web resources and services.